createdAt,value
2023-09-10T00:00:05.244Z,17.44
2023-09-10T00:03:10.434Z,17.42
2023-09-10T00:06:14.084Z,17.43
2023-09-10T00:09:17.683Z,17.40
2023-09-10T00:12:21.187Z,17.35
2023-09-10T00:15:24.717Z,17.39
2023-09-10T00:18:29.597Z,17.43
2023-09-10T00:21:33.251Z,17.45
2023-09-10T00:24:36.766Z,17.46
2023-09-10T00:27:40.310Z,17.41
2023-09-10T00:30:43.785Z,17.35
2023-09-10T00:33:48.788Z,17.35
2023-09-10T00:36:52.300Z,17.22
2023-09-10T00:39:55.819Z,17.03
2023-09-10T00:42:59.289Z,17.09
2023-09-10T00:46:04.343Z,17.09
2023-09-10T00:49:09.427Z,17.00
2023-09-10T00:52:14.247Z,16.90
2023-09-10T00:55:19.103Z,16.95
2023-09-10T00:58:23.024Z,16.98
2023-09-10T01:01:27.482Z,16.95
2023-09-10T01:04:32.488Z,16.93
2023-09-10T01:07:36.540Z,16.97
2023-09-10T01:10:53.394Z,16.91
2023-09-10T01:14:10.405Z,16.83
2023-09-10T01:17:31.349Z,16.83
2023-09-10T01:21:09.558Z,16.82
2023-09-10T01:24:26.166Z,16.80
2023-09-10T01:27:31.274Z,16.69
2023-09-10T01:30:36.100Z,16.62
2023-09-10T01:33:47.773Z,16.62
2023-09-10T01:37:02.304Z,16.62
2023-09-10T01:40:12.408Z,16.60
2023-09-10T01:43:18.075Z,16.62
2023-09-10T01:46:25.324Z,16.61
2023-09-10T01:49:29.662Z,16.63
2023-09-10T01:52:33.223Z,16.54
2023-09-10T01:55:36.836Z,16.59
2023-09-10T01:58:41.999Z,16.58
2023-09-10T02:01:45.857Z,16.55
2023-09-10T02:04:49.457Z,16.41
2023-09-10T02:07:53.022Z,16.45
2023-09-10T02:10:56.636Z,16.50
2023-09-10T02:14:01.594Z,16.54
2023-09-10T02:17:05.743Z,16.52
2023-09-10T02:20:11.181Z,16.45
2023-09-10T02:23:14.925Z,16.46
2023-09-10T02:26:18.649Z,16.37
2023-09-10T02:29:23.646Z,16.24
2023-09-10T02:32:27.631Z,16.16
2023-09-10T02:35:31.327Z,16.08
2023-09-10T02:38:34.903Z,16.01
2023-09-10T02:41:38.409Z,16.04
2023-09-10T02:44:43.554Z,15.86
2023-09-10T02:47:47.183Z,15.86
2023-09-10T02:50:51.035Z,15.84
2023-09-10T02:53:54.560Z,15.81
2023-09-10T02:56:58.163Z,15.74
2023-09-10T03:00:05.445Z,15.69
2023-09-10T03:03:09.124Z,15.63
2023-09-10T03:06:16.055Z,15.66
2023-09-10T03:09:19.907Z,15.61
2023-09-10T03:12:26.194Z,15.54
2023-09-10T03:15:31.489Z,15.58
2023-09-10T03:18:35.000Z,15.36
2023-09-10T03:21:39.432Z,15.31
2023-09-10T03:24:42.943Z,15.09
2023-09-10T03:27:46.558Z,15.14
2023-09-10T03:30:51.473Z,15.12
2023-09-10T03:33:54.964Z,15.06
2023-09-10T03:36:59.355Z,15.15
2023-09-10T03:40:05.451Z,15.13
2023-09-10T03:43:08.998Z,15.20
2023-09-10T03:46:14.107Z,15.16
2023-09-10T03:49:17.663Z,15.06
2023-09-10T03:52:23.446Z,15.07
2023-09-10T03:55:26.983Z,15.01
2023-09-10T03:58:30.468Z,14.96
2023-09-10T04:01:35.982Z,14.90
2023-09-10T04:04:39.970Z,14.91
2023-09-10T04:07:43.681Z,14.77
2023-09-10T04:10:47.300Z,14.77
2023-09-10T04:13:51.097Z,14.68
2023-09-10T04:16:56.105Z,14.91
2023-09-10T04:20:00.003Z,14.80
2023-09-10T04:23:03.627Z,14.97
2023-09-10T04:26:07.348Z,14.86
2023-09-10T04:29:11.024Z,14.88
2023-09-10T04:32:16.085Z,14.74
2023-09-10T04:35:19.893Z,14.97
2023-09-10T04:38:24.310Z,14.95
2023-09-10T04:41:28.159Z,14.91
2023-09-10T04:44:31.795Z,14.99
2023-09-10T04:47:36.722Z,15.00
2023-09-10T04:50:40.317Z,14.97
2023-09-10T04:53:45.582Z,15.09
2023-09-10T04:56:50.090Z,15.06
2023-09-10T04:59:53.875Z,15.31
2023-09-10T05:02:59.045Z,15.09
2023-09-10T05:06:04.213Z,15.25
2023-09-10T05:09:09.584Z,15.20
2023-09-10T05:12:13.229Z,15.28
2023-09-10T05:15:25.588Z,15.16
2023-09-10T05:18:30.520Z,15.20
2023-09-10T05:21:34.054Z,15.43
2023-09-10T05:24:37.823Z,15.49
2023-09-10T05:27:41.313Z,15.47
2023-09-10T05:30:44.968Z,15.55
2023-09-10T05:33:49.852Z,15.44
2023-09-10T05:36:54.551Z,15.56
2023-09-10T05:39:58.323Z,15.57
2023-09-10T05:43:01.903Z,15.42
2023-09-10T05:46:07.299Z,15.38
2023-09-10T05:49:13.672Z,15.45
2023-09-10T05:52:17.392Z,15.63
2023-09-10T05:55:20.956Z,15.66
2023-09-10T05:58:25.622Z,15.50
2023-09-10T06:01:29.756Z,15.48
2023-09-10T06:04:34.845Z,15.64
2023-09-10T06:07:38.490Z,15.80
2023-09-10T06:10:42.124Z,15.99
2023-09-10T06:13:45.665Z,15.91
2023-09-10T06:16:49.268Z,15.80
2023-09-10T06:19:54.491Z,15.77
2023-09-10T06:22:58.558Z,15.72
2023-09-10T06:26:02.300Z,15.93
2023-09-10T06:29:06.598Z,15.83
2023-09-10T06:32:12.817Z,15.85
2023-09-10T06:35:18.920Z,16.12
2023-09-10T06:38:23.452Z,15.80
2023-09-10T06:41:26.995Z,16.03
2023-09-10T06:44:30.934Z,16.03
2023-09-10T06:47:34.504Z,16.10
2023-09-10T06:50:39.509Z,16.19
2023-09-10T06:53:43.082Z,15.81
2023-09-10T06:56:47.111Z,15.92
2023-09-10T06:59:50.708Z,15.93
2023-09-10T07:02:54.312Z,16.21
2023-09-10T07:06:00.110Z,16.00
2023-09-10T07:09:03.985Z,16.17
2023-09-10T07:12:09.626Z,16.06
2023-09-10T07:15:13.363Z,16.24
2023-09-10T07:18:16.911Z,16.07
2023-09-10T07:21:21.839Z,16.25
2023-09-10T07:24:25.421Z,16.42
2023-09-10T07:27:28.889Z,16.54
2023-09-10T07:30:32.408Z,16.51
2023-09-10T07:33:35.948Z,16.26
2023-09-10T07:36:41.852Z,16.50
2023-09-10T07:39:45.353Z,16.56
2023-09-10T07:42:49.288Z,16.39
2023-09-10T07:45:53.002Z,16.48
2023-09-10T07:48:56.528Z,16.77
2023-09-10T07:52:04.513Z,16.88
2023-09-10T07:55:08.960Z,16.75
2023-09-10T07:58:12.549Z,16.63
2023-09-10T08:01:16.051Z,16.75
2023-09-10T08:04:19.575Z,17.04
2023-09-10T08:07:24.414Z,16.75
2023-09-10T08:10:28.275Z,16.68
2023-09-10T08:13:31.779Z,16.64
2023-09-10T08:16:35.362Z,16.78
2023-09-10T08:19:38.917Z,16.63
2023-09-10T08:22:46.275Z,16.69
2023-09-10T08:25:53.107Z,17.14
2023-09-10T08:28:56.659Z,17.13
2023-09-10T08:32:01.991Z,17.18
2023-09-10T08:35:07.284Z,16.86
2023-09-10T08:38:12.500Z,17.04
2023-09-10T08:41:26.385Z,17.18
2023-09-10T08:44:32.660Z,17.10
2023-09-10T08:47:41.677Z,17.44
2023-09-10T08:50:46.271Z,17.51
2023-09-10T08:53:52.936Z,17.25
2023-09-10T08:56:58.294Z,17.63
2023-09-10T09:00:07.212Z,17.50
2023-09-10T09:03:11.273Z,17.81
2023-09-10T09:06:14.958Z,18.16
2023-09-10T09:09:25.018Z,18.16
2023-09-10T09:12:32.331Z,18.25
2023-09-10T09:15:40.773Z,18.62
2023-09-10T09:18:45.574Z,18.64
2023-09-10T09:21:52.278Z,18.90
2023-09-10T09:24:58.324Z,19.06
2023-09-10T09:28:04.260Z,18.30
2023-09-10T09:31:11.306Z,19.11
2023-09-10T09:34:15.136Z,19.78
2023-09-10T09:37:21.561Z,19.86
2023-09-10T09:40:26.452Z,19.76
2023-09-10T09:43:29.931Z,19.88
2023-09-10T09:46:34.686Z,19.77
2023-09-10T09:49:46.509Z,19.85
2023-09-10T09:52:53.933Z,20.20
2023-09-10T09:56:00.591Z,20.30
2023-09-10T09:59:04.226Z,20.46
2023-09-10T10:02:15.499Z,20.80
2023-09-10T10:05:20.865Z,20.69
2023-09-10T10:08:28.403Z,20.70
2023-09-10T10:11:36.105Z,20.77
2023-09-10T10:14:39.913Z,20.97
2023-09-10T10:17:45.609Z,21.27
2023-09-10T10:20:51.152Z,20.94
2023-09-10T10:23:58.190Z,20.93
2023-09-10T10:27:04.724Z,21.17
2023-09-10T10:30:10.713Z,20.93
2023-09-10T10:33:19.297Z,21.06
2023-09-10T10:36:38.505Z,21.11
2023-09-10T10:39:55.897Z,21.18
2023-09-10T10:43:12.116Z,21.25
2023-09-10T10:46:19.860Z,21.62
2023-09-10T10:49:24.425Z,20.81
2023-09-10T10:52:33.253Z,21.03
2023-09-10T10:55:38.613Z,21.17
2023-09-10T10:58:44.183Z,21.54
2023-09-10T11:02:26.462Z,21.60
2023-09-10T11:06:16.556Z,21.90
2023-09-10T11:09:37.688Z,21.39
2023-09-10T11:13:01.658Z,21.40
2023-09-10T11:16:19.261Z,21.22
2023-09-10T11:19:46.172Z,21.62
2023-09-10T11:23:15.346Z,21.47
2023-09-10T11:26:33.213Z,21.75
2023-09-10T11:29:40.929Z,21.71
2023-09-10T11:32:47.183Z,21.71
2023-09-10T11:35:54.740Z,21.93
2023-09-10T11:39:00.206Z,21.92
2023-09-10T11:42:09.142Z,21.81
2023-09-10T11:45:14.079Z,22.08
2023-09-10T11:48:17.663Z,22.12
2023-09-10T11:54:28.330Z,22.02
2023-09-10T11:57:34.829Z,22.08
2023-09-10T12:00:39.293Z,22.15
2023-09-10T12:03:46.651Z,22.50
2023-09-10T12:06:50.333Z,22.64
2023-09-10T12:09:55.336Z,22.56
2023-09-10T12:13:04.606Z,22.53
2023-09-10T12:16:09.120Z,22.73
2023-09-10T12:19:13.010Z,22.39
2023-09-10T12:22:19.405Z,22.64
2023-09-10T12:25:24.299Z,22.62
2023-09-10T12:28:28.433Z,22.85
2023-09-10T12:31:32.774Z,22.91
2023-09-10T12:34:37.282Z,22.74
2023-09-10T12:37:51.239Z,23.00
2023-09-10T12:40:56.290Z,22.90
2023-09-10T12:44:00.717Z,23.24
2023-09-10T12:47:04.567Z,23.43
2023-09-10T12:50:10.256Z,23.39
2023-09-10T12:53:14.276Z,23.45
2023-09-10T12:56:19.871Z,23.57
2023-09-10T12:59:23.643Z,23.39
2023-09-10T13:02:32.072Z,23.46
2023-09-10T13:05:36.334Z,23.51
2023-09-10T13:08:40.179Z,23.51
2023-09-10T13:11:45.169Z,23.88
2023-09-10T13:14:48.693Z,23.68
2023-09-10T13:17:52.458Z,23.75
2023-09-10T13:20:56.077Z,23.86
2023-09-10T13:23:59.713Z,24.13
2023-09-10T13:27:05.007Z,23.79
2023-09-10T13:30:10.382Z,23.89
2023-09-10T13:33:13.893Z,23.95
2023-09-10T13:36:17.416Z,24.04
2023-09-10T13:39:21.243Z,23.96
2023-09-10T13:42:26.280Z,24.12
2023-09-10T13:45:30.758Z,24.17
2023-09-10T13:48:36.195Z,24.42
2023-09-10T13:51:40.098Z,24.66
2023-09-10T13:54:43.676Z,24.23
2023-09-10T13:57:48.578Z,24.41
2023-09-10T14:00:52.097Z,24.69
2023-09-10T14:03:56.075Z,24.63
2023-09-10T14:06:59.674Z,24.48
2023-09-10T14:10:04.129Z,24.32
2023-09-10T14:13:09.249Z,24.32
2023-09-10T14:16:13.174Z,24.44
2023-09-10T14:19:16.739Z,24.46
2023-09-10T14:22:20.240Z,24.47
2023-09-10T14:25:24.033Z,24.52
2023-09-10T14:28:29.446Z,24.46
2023-09-10T14:31:33.212Z,24.52
2023-09-10T14:34:36.719Z,24.62
2023-09-10T14:37:40.374Z,24.75
2023-09-10T14:40:43.898Z,24.53
2023-09-10T14:43:48.927Z,24.34
2023-09-10T14:46:52.461Z,24.40
2023-09-10T14:49:56.139Z,24.56
2023-09-10T14:52:59.926Z,24.44
2023-09-10T14:56:04.348Z,24.47
2023-09-10T14:59:09.426Z,24.57
2023-09-10T15:02:13.009Z,24.59
2023-09-10T15:05:16.707Z,24.42
2023-09-10T15:08:20.535Z,24.70
2023-09-10T15:11:24.312Z,24.69
2023-09-10T15:14:29.338Z,24.86
2023-09-10T15:17:33.190Z,24.99
2023-09-10T15:20:36.940Z,24.93
2023-09-10T15:23:40.934Z,25.04
2023-09-10T15:26:44.615Z,24.77
2023-09-10T15:29:49.601Z,24.43
2023-09-10T15:32:53.468Z,24.76
2023-09-10T15:35:57.262Z,24.53
2023-09-10T15:39:00.896Z,24.54
2023-09-10T15:42:05.034Z,24.52
2023-09-10T15:45:12.355Z,24.45
2023-09-10T15:48:15.940Z,24.43
2023-09-10T15:51:19.502Z,24.36
2023-09-10T15:54:23.050Z,24.21
2023-09-10T15:57:28.145Z,24.11
2023-09-10T16:00:33.094Z,24.13
2023-09-10T16:03:36.832Z,24.07
2023-09-10T16:06:40.477Z,23.92
2023-09-10T16:09:44.868Z,24.09
2023-09-10T16:12:48.716Z,24.21
2023-09-10T16:15:53.659Z,24.13
2023-09-10T16:18:59.958Z,24.14
2023-09-10T16:22:06.936Z,24.29
2023-09-10T16:25:12.346Z,24.31
2023-09-10T16:28:15.972Z,24.37
2023-09-10T16:31:21.176Z,24.22
2023-09-10T16:34:24.931Z,24.23
2023-09-10T16:37:28.551Z,24.27
2023-09-10T16:40:32.078Z,24.25
2023-09-10T16:43:35.582Z,24.13
2023-09-10T16:46:41.942Z,24.06
2023-09-10T16:49:45.485Z,24.06
2023-09-10T16:52:49.042Z,24.05
2023-09-10T16:55:53.046Z,23.95
2023-09-10T16:58:59.598Z,23.89
2023-09-10T17:02:05.080Z,23.80
2023-09-10T17:05:11.709Z,23.70
2023-09-10T17:08:15.410Z,23.57
2023-09-10T17:11:37.907Z,23.43
2023-09-10T17:14:41.648Z,23.33
2023-09-10T17:17:46.762Z,23.21
2023-09-10T17:20:50.427Z,23.08
2023-09-10T17:23:55.339Z,22.95
2023-09-10T17:26:58.990Z,22.86
2023-09-10T17:30:03.339Z,22.72
2023-09-10T17:33:08.530Z,22.62
2023-09-10T17:36:12.148Z,22.51
2023-09-10T17:39:15.719Z,22.43
2023-09-10T17:42:20.454Z,22.31
2023-09-10T17:45:28.613Z,22.23
2023-09-10T17:48:33.751Z,22.14
2023-09-10T17:51:37.278Z,22.00
2023-09-10T17:54:40.848Z,21.86
2023-09-10T17:57:44.806Z,21.79
2023-09-10T18:00:48.704Z,21.68
2023-09-10T18:03:53.894Z,21.55
2023-09-10T18:06:57.504Z,21.51
2023-09-10T18:10:01.885Z,21.40
2023-09-10T18:13:06.992Z,21.31
2023-09-10T18:16:10.647Z,21.20
2023-09-10T18:19:15.554Z,21.13
2023-09-10T18:22:19.082Z,21.02
2023-09-10T18:25:22.667Z,20.88
2023-09-10T18:28:26.191Z,20.71
2023-09-10T18:31:29.699Z,20.66
2023-09-10T18:34:34.747Z,20.55
2023-09-10T18:37:42.013Z,20.49
2023-09-10T18:40:45.777Z,20.41
2023-09-10T18:43:49.508Z,20.33
2023-09-10T18:46:56.334Z,20.26
2023-09-10T18:50:02.030Z,20.20
2023-09-10T18:53:06.400Z,20.15
2023-09-10T18:56:10.194Z,20.12
2023-09-10T18:59:13.732Z,20.05
2023-09-10T19:02:17.463Z,20.02
2023-09-10T19:05:22.601Z,19.97
2023-09-10T19:08:26.738Z,19.91
2023-09-10T19:11:30.319Z,19.82
2023-09-10T19:14:34.506Z,19.75
2023-09-10T19:17:39.015Z,19.65
2023-09-10T19:20:46.459Z,19.57
2023-09-10T19:23:50.246Z,19.53
2023-09-10T19:26:53.951Z,19.49
2023-09-10T19:29:57.836Z,19.42
2023-09-10T19:33:01.502Z,19.42
2023-09-10T19:36:07.914Z,19.38
2023-09-10T19:39:26.662Z,19.30
2023-09-10T19:42:30.538Z,19.26
2023-09-10T19:45:34.074Z,19.22
2023-09-10T19:48:37.616Z,19.14
2023-09-10T19:51:42.652Z,19.07
2023-09-10T19:54:52.829Z,19.01
2023-09-10T19:58:02.895Z,18.93
2023-09-10T20:01:06.837Z,18.93
2023-09-10T20:04:11.531Z,18.84
2023-09-10T20:07:16.428Z,18.78
2023-09-10T20:10:21.810Z,18.72
2023-09-10T20:13:25.419Z,18.63
2023-09-10T20:16:29.655Z,18.59
2023-09-10T20:19:33.421Z,18.55
2023-09-10T20:22:38.303Z,18.49
2023-09-10T20:25:41.858Z,18.44
2023-09-10T20:28:45.557Z,18.40
2023-09-10T20:31:49.147Z,18.33
2023-09-10T20:34:52.653Z,18.27
2023-09-10T20:37:58.071Z,18.23
2023-09-10T20:41:01.982Z,18.21
2023-09-10T20:44:06.020Z,18.20
2023-09-10T20:47:09.567Z,18.20
2023-09-10T20:50:13.258Z,18.19
2023-09-10T20:53:18.300Z,18.17
2023-09-10T20:56:22.077Z,18.16
2023-09-10T20:59:25.739Z,18.16
2023-09-10T21:02:30.410Z,18.12
2023-09-10T21:05:34.316Z,18.01
2023-09-10T21:08:39.461Z,17.89
2023-09-10T21:11:43.165Z,17.79
2023-09-10T21:14:47.286Z,17.76
2023-09-10T21:17:51.021Z,17.76
2023-09-10T21:20:54.642Z,17.73
2023-09-10T21:23:59.791Z,17.76
2023-09-10T21:27:04.067Z,17.75
2023-09-10T21:30:09.734Z,17.74
2023-09-10T21:33:13.314Z,17.71
2023-09-10T21:36:16.856Z,17.70
2023-09-10T21:39:21.720Z,17.66
2023-09-10T21:42:25.438Z,17.64
2023-09-10T21:45:28.878Z,17.59
2023-09-10T21:48:32.457Z,17.57
2023-09-10T21:51:36.003Z,17.53
2023-09-10T21:54:40.955Z,17.53
2023-09-10T21:57:44.441Z,17.54
2023-09-10T22:00:47.958Z,17.54
2023-09-10T22:03:51.505Z,17.51
2023-09-10T22:06:55.096Z,17.47
2023-09-10T22:10:00.161Z,17.42
2023-09-10T22:13:03.730Z,17.35
2023-09-10T22:16:07.376Z,17.32
2023-09-10T22:19:14.074Z,17.36
2023-09-10T22:22:17.590Z,17.34
2023-09-10T22:25:23.099Z,17.36
2023-09-10T22:28:27.319Z,17.36
2023-09-10T22:31:30.878Z,17.34
2023-09-10T22:34:34.495Z,17.30
2023-09-10T22:37:38.033Z,17.29
2023-09-10T22:40:42.900Z,17.29
2023-09-10T22:43:46.444Z,17.23
2023-09-10T22:46:50.011Z,17.21
2023-09-10T22:49:54.440Z,17.16
2023-09-10T22:52:57.936Z,17.14
2023-09-10T22:56:02.865Z,17.13
2023-09-10T22:59:06.495Z,17.14
2023-09-10T23:02:10.019Z,17.10
2023-09-10T23:05:13.717Z,17.06
2023-09-10T23:08:17.423Z,17.00
2023-09-10T23:11:22.481Z,16.91
2023-09-10T23:14:26.154Z,16.88
2023-09-10T23:17:29.787Z,16.84
2023-09-10T23:20:33.436Z,16.78
2023-09-10T23:23:38.539Z,16.79
2023-09-10T23:26:47.597Z,16.75
2023-09-10T23:29:51.313Z,16.74
2023-09-10T23:32:56.531Z,16.64
2023-09-10T23:36:00.493Z,16.63
2023-09-10T23:39:04.114Z,16.64
2023-09-10T23:42:09.348Z,16.57
2023-09-10T23:45:14.798Z,16.53
2023-09-10T23:48:19.081Z,16.58
2023-09-10T23:51:26.047Z,16.56
2023-09-10T23:54:29.577Z,16.46
2023-09-10T23:57:35.613Z,16.46
